Time;durP1;ratioP1;P1;durP2;ratioP2;P2;SDS_P1;SDS_P2;PMS_P1;PMS_P2;Temp;Humidity;BMP_temperature;BMP_pressure;BME280_temperature;BME280_humidity;BME280_pressure;Samples;Min_cycle;Max_cycle;Signal;HPM_P1;HPM_P2
2024/02/12 00:02:18;;;;;;;96.82;20.98;;;;;;;6.98;100.00;96275.91;5023418;28;20329;-62
2024/02/12 00:04:49;;;;;;;62.28;17.85;;;;;;;7.06;100.00;96273.22;5028121;28;20119;-62
2024/02/12 00:07:16;;;;;;;119.35;19.42;;;;;;;7.01;100.00;96272.41;5031770;28;20090;-63
2024/02/12 00:09:45;;;;;;;73.55;21.75;;;;;;;7.12;100.00;96283.44;5025697;28;20032;-61
2024/02/12 00:12:11;;;;;;;90.82;19.92;;;;;;;6.98;100.00;96282.81;5026309;28;20517;-62
2024/02/12 00:14:37;;;;;;;75.00;18.90;;;;;;;7.12;100.00;96278.25;5027853;28;20040;-61
2024/02/12 00:17:05;;;;;;;40.53;16.95;;;;;;;7.15;100.00;96280.81;5029651;28;20041;-59
2024/02/12 00:19:37;;;;;;;69.93;18.15;;;;;;;7.14;100.00;96283.41;5025780;28;20028;-59
2024/02/12 00:22:02;;;;;;;39.67;16.15;;;;;;;7.04;100.00;96272.38;5027946;28;20045;-59
2024/02/12 00:24:28;;;;;;;48.63;16.13;;;;;;;6.96;100.00;96282.84;5026513;28;20033;-59
2024/02/12 00:27:00;;;;;;;65.40;16.05;;;;;;;6.89;100.00;96282.09;5025361;28;20065;-60
2024/02/12 00:29:26;;;;;;;62.65;15.32;;;;;;;6.86;100.00;96276.97;5026578;28;20025;-57
2024/02/12 00:31:52;;;;;;;47.95;15.52;;;;;;;6.76;100.00;96290.94;5027579;28;20029;-59
2024/02/12 00:34:20;;;;;;;105.88;19.83;;;;;;;6.75;100.00;96290.06;5025296;28;20045;-59
2024/02/12 00:36:46;;;;;;;49.30;15.40;;;;;;;6.86;100.00;96289.88;5026930;28;20033;-59
2024/02/12 00:39:12;;;;;;;82.57;18.05;;;;;;;6.87;100.00;96283.00;5026017;28;20029;-59
2024/02/12 00:41:38;;;;;;;52.47;17.40;;;;;;;6.83;100.00;96289.94;5026929;28;20325;-59
2024/02/12 00:44:04;;;;;;;32.45;15.00;;;;;;;6.90;100.00;96293.28;5028587;28;20428;-60
2024/02/12 00:46:29;;;;;;;65.07;16.30;;;;;;;6.90;100.00;96296.72;5026151;28;20675;-61
2024/02/12 00:48:56;;;;;;;41.83;15.13;;;;;;;6.99;100.00;96292.28;5028144;28;20116;-59
2024/02/12 00:51:22;;;;;;;74.75;16.55;;;;;;;7.05;100.00;96294.75;5026434;28;20125;-58
2024/02/12 00:53:47;;;;;;;62.08;16.75;;;;;;;7.10;100.00;96289.50;5025674;28;20673;-59
2024/02/12 00:56:15;;;;;;;83.30;16.25;;;;;;;6.95;100.00;96295.78;5026938;28;20072;-59
2024/02/12 00:58:41;;;;;;;56.67;15.93;;;;;;;7.08;100.00;96293.84;5028204;28;20598;-58
2024/02/12 01:01:07;;;;;;;58.45;17.23;;;;;;;7.14;100.00;96294.63;5024765;28;20431;-59
2024/02/12 01:03:34;;;;;;;55.08;16.35;;;;;;;7.14;100.00;96294.63;5026611;28;20024;-58
2024/02/12 01:06:00;;;;;;;53.03;14.98;;;;;;;7.01;100.00;96293.09;5026537;28;20461;-60
2024/02/12 01:08:25;;;;;;;120.78;19.45;;;;;;;7.12;100.00;96296.38;5023033;28;20079;-58
2024/02/12 01:10:50;;;;;;;58.60;15.13;;;;;;;7.04;100.00;96290.47;5023421;28;20374;-60
2024/02/12 01:13:16;;;;;;;79.35;20.35;;;;;;;7.03;100.00;96291.34;5025823;28;20028;-59
2024/02/12 01:15:41;;;;;;;75.07;16.83;;;;;;;7.14;100.00;96293.75;5025212;28;20037;-61
2024/02/12 01:18:07;;;;;;;45.90;14.38;;;;;;;7.28;100.00;96301.28;5025102;28;20033;-59
2024/02/12 01:20:33;;;;;;;73.75;17.73;;;;;;;7.16;100.00;96300.59;5023116;28;20037;-58
2024/02/12 01:22:59;;;;;;;81.30;16.60;;;;;;;7.05;100.00;96304.25;5021982;28;20420;-61
2024/02/12 01:25:24;;;;;;;66.40;15.93;;;;;;;7.18;100.00;96312.66;5021370;28;20226;-59
2024/02/12 01:27:50;;;;;;;63.10;17.25;;;;;;;7.16;100.00;96315.25;5023511;28;20030;-59
2024/02/12 01:30:16;;;;;;;97.13;18.10;;;;;;;7.20;100.00;96313.50;5021422;28;20590;-59
2024/02/12 01:32:42;;;;;;;71.35;16.45;;;;;;;7.35;100.00;96302.03;5024834;28;20100;-58
2024/02/12 01:35:07;;;;;;;64.18;14.93;;;;;;;7.31;100.00;96305.53;5025412;28;20087;-61
2024/02/12 01:37:33;;;;;;;57.00;14.43;;;;;;;7.35;100.00;96308.03;5023506;28;20430;-60
2024/02/12 01:39:59;;;;;;;48.45;14.70;;;;;;;7.33;100.00;96299.47;5024171;28;20045;-58
2024/02/12 01:42:24;;;;;;;99.60;17.40;;;;;;;7.39;100.00;96309.69;5021863;28;20049;-59
2024/02/12 01:45:13;;;;;;;54.00;15.00;;;;;;;7.42;100.00;96303.59;5024845;28;20025;-60
2024/02/12 01:47:50;;;;;;;73.43;15.38;;;;;;;7.35;100.00;96300.28;5023039;28;20409;-59
2024/02/12 01:50:17;;;;;;;87.35;17.80;;;;;;;7.37;100.00;96303.72;5023712;28;20029;-58
2024/02/12 01:52:48;;;;;;;76.57;16.65;;;;;;;7.41;100.00;96302.78;5023343;28;20044;-59
2024/02/12 01:55:20;;;;;;;68.80;16.13;;;;;;;7.36;100.00;96298.56;5024454;28;20037;-60
2024/02/12 01:57:46;;;;;;;51.53;14.90;;;;;;;7.45;100.00;96297.56;5023193;28;20387;-59
2024/02/12 02:00:14;;;;;;;65.63;14.10;;;;;;;7.40;100.00;96300.22;5021911;28;20029;-58
2024/02/12 02:02:43;;;;;;;56.72;14.77;;;;;;;7.47;100.00;96299.22;5023666;28;20361;-60
2024/02/12 02:05:10;;;;;;;66.35;14.30;;;;;;;7.37;100.00;96301.13;5026108;28;20493;-58
2024/02/12 02:07:36;;;;;;;62.28;14.35;;;;;;;7.38;100.00;96299.38;5026207;28;20045;-59
2024/02/12 02:10:04;;;;;;;54.22;14.27;;;;;;;7.28;100.00;96293.53;5026994;28;20029;-59
2024/02/12 02:12:30;;;;;;;125.57;20.13;;;;;;;7.37;100.00;96300.25;5023706;28;20044;-60
2024/02/12 02:14:56;;;;;;;66.30;15.45;;;;;;;7.40;100.00;96297.63;5027897;28;20040;-62
2024/02/12 02:17:21;;;;;;;72.95;15.45;;;;;;;7.27;100.00;96310.75;5026001;28;20413;-58
2024/02/12 02:19:48;;;;;;;86.57;39.00;;;;;;;7.23;100.00;96308.25;5027170;28;20646;-61
2024/02/12 02:22:17;;;;;;;57.70;14.35;;;;;;;7.22;100.00;96309.13;5027100;28;20048;-59
2024/02/12 02:24:42;;;;;;;65.45;13.55;;;;;;;7.18;100.00;96305.75;5027369;28;20048;-59
2024/02/12 02:27:10;;;;;;;47.40;14.52;;;;;;;7.28;100.00;96303.88;5026682;28;20425;-61
2024/02/12 02:29:37;;;;;;;64.93;21.17;;;;;;;7.16;100.00;96303.19;5025683;28;20025;-59
2024/02/12 02:32:03;;;;;;;61.65;21.75;;;;;;;7.06;100.00;96301.66;5025831;28;20477;-61
2024/02/12 02:34:29;;;;;;;109.50;19.13;;;;;;;7.16;100.00;96304.91;5026564;28;20052;-59
2024/02/12 02:36:54;;;;;;;49.92;13.10;;;;;;;7.12;100.00;96306.72;5026765;28;20515;-61
2024/02/12 02:39:20;;;;;;;115.20;21.60;;;;;;;7.20;100.00;96297.97;5024171;28;20267;-58
2024/02/12 02:41:46;;;;;;;60.95;18.33;;;;;;;7.05;100.00;96299.91;5026997;28;20065;-61
2024/02/12 02:44:13;;;;;;;47.10;17.60;;;;;;;7.29;100.00;96297.81;5025980;28;20071;-58
2024/02/12 02:46:39;;;;;;;87.47;17.80;;;;;;;7.40;100.00;96298.47;5023107;28;20044;-59
2024/02/12 02:49:04;;;;;;;50.17;15.82;;;;;;;7.24;100.00;96300.47;5026086;28;20060;-60
2024/02/12 02:51:30;;;;;;;91.13;18.17;;;;;;;7.20;100.00;96305.72;5026337;28;20449;-58
2024/02/12 02:53:56;;;;;;;75.03;18.02;;;;;;;7.26;100.00;96298.72;5025869;28;20691;-61
2024/02/12 02:56:22;;;;;;;91.47;18.60;;;;;;;7.43;100.00;96310.50;5024241;28;20049;-58
2024/02/12 02:58:49;;;;;;;53.70;14.27;;;;;;;7.22;100.00;96309.13;5027641;28;20103;-60
2024/02/12 03:01:18;;;;;;;64.32;15.65;;;;;;;7.25;100.00;96309.09;5024031;28;20060;-59
2024/02/12 03:03:44;;;;;;;61.03;16.02;;;;;;;7.28;100.00;96309.03;5026678;28;20583;-60
2024/02/12 03:06:12;;;;;;;71.20;16.08;;;;;;;7.40;100.00;96315.72;5026210;28;20069;-60
2024/02/12 03:08:39;;;;;;;57.65;15.52;;;;;;;7.26;100.00;96313.38;5027830;28;20040;-59
2024/02/12 03:11:05;;;;;;;46.80;14.68;;;;;;;7.20;100.00;96314.31;5026100;28;20041;-59
2024/02/12 03:13:31;;;;;;;115.00;19.83;;;;;;;7.27;100.00;96313.34;5024833;28;20086;-60
2024/02/12 03:15:57;;;;;;;54.05;14.20;;;;;;;7.32;100.00;96307.25;5025431;28;20038;-58
2024/02/12 03:18:23;;;;;;;87.30;18.02;;;;;;;7.43;100.00;96316.50;5026829;28;20025;-59
2024/02/12 03:20:51;;;;;;;75.22;16.63;;;;;;;7.25;100.00;96314.25;5024685;28;20045;-61
2024/02/12 03:23:17;;;;;;;44.50;14.57;;;;;;;7.16;100.00;96313.53;5024391;28;20037;-57
2024/02/12 03:25:42;;;;;;;59.75;15.57;;;;;;;7.25;100.00;96317.72;5025339;28;20038;-59
2024/02/12 03:28:07;;;;;;;51.30;15.73;;;;;;;7.15;100.00;96310.97;5025149;28;20024;-59
2024/02/12 03:30:33;;;;;;;90.00;15.70;;;;;;;7.32;100.00;96313.28;5023091;28;20095;-60
2024/02/12 03:33:02;;;;;;;63.03;16.08;;;;;;;7.27;100.00;96313.34;5025216;28;20422;-58
2024/02/12 03:35:28;;;;;;;95.93;18.42;;;;;;;7.26;100.00;96322.00;5023660;28;20037;-60
2024/02/12 03:37:54;;;;;;;61.47;15.38;;;;;;;7.47;100.00;96316.47;5026375;28;20063;-59
2024/02/12 03:40:22;;;;;;;69.60;15.73;;;;;;;7.32;100.00;96321.03;5022919;28;20297;-62
2024/02/12 03:42:50;;;;;;;55.22;26.25;;;;;;;7.43;100.00;96320.84;5024479;28;20106;-60
2024/02/12 03:45:16;;;;;;;46.35;22.08;;;;;;;7.23;100.00;96316.00;5025572;28;20025;-61
2024/02/12 03:47:41;;;;;;;96.40;39.63;;;;;;;7.31;100.00;96321.91;5024522;28;20035;-60
2024/02/12 04:01:03;;;;;;;67.90;14.23;;;;;;;7.07;100.00;96331.78;5024537;28;20543;-60
2024/02/12 04:03:28;;;;;;;87.40;18.05;;;;;;;7.28;100.00;96333.16;5023925;28;20025;-59
2024/02/12 04:05:54;;;;;;;49.25;18.42;;;;;;;7.50;100.00;96334.53;5025735;28;20033;-60
2024/02/12 04:08:19;;;;;;;74.68;22.17;;;;;;;7.45;100.00;96333.75;5025512;28;20033;-60
2024/02/12 04:10:45;;;;;;;50.22;17.52;;;;;;;7.45;100.00;96341.53;5020112;28;20123;-59
2024/02/12 04:13:10;;;;;;;36.67;14.55;;;;;;;7.61;100.00;96342.09;5026776;28;20472;-60
2024/02/12 04:15:41;;;;;;;104.43;17.77;;;;;;;7.52;100.00;96340.50;5023331;28;20176;-59
2024/02/12 04:18:08;;;;;;;54.67;15.18;;;;;;;7.55;100.00;96337.88;5027657;28;20128;-60
2024/02/12 04:20:35;;;;;;;82.25;18.60;;;;;;;7.56;100.00;96347.34;5020917;28;20029;-59
2024/02/12 04:23:01;;;;;;;58.95;15.82;;;;;;;7.56;100.00;96349.94;5024946;28;20821;-59
2024/02/12 04:25:27;;;;;;;79.93;17.05;;;;;;;7.54;100.00;96347.38;5024359;28;20124;-59
2024/02/12 04:27:54;;;;;;;59.05;16.52;;;;;;;7.45;100.00;96357.03;5025392;28;20435;-59
2024/02/12 04:30:20;;;;;;;59.33;19.08;;;;;;;7.55;100.00;96356.00;5023887;28;20743;-59
2024/02/12 04:32:47;;;;;;;46.33;17.70;;;;;;;7.52;100.00;96354.31;5023954;28;20021;-60
2024/02/12 04:35:13;;;;;;;74.07;17.95;;;;;;;7.48;100.00;96359.56;5024986;28;20388;-59
2024/02/12 04:37:38;;;;;;;104.60;21.60;;;;;;;7.73;100.00;96353.94;5022913;28;20021;-58
2024/02/12 04:40:07;;;;;;;55.17;16.42;;;;;;;7.50;100.00;96358.66;5023682;28;20449;-59
2024/02/12 04:42:33;;;;;;;144.95;47.92;;;;;;;7.68;100.00;96361.78;5021866;28;20224;-59
2024/02/12 04:44:58;;;;;;;59.67;16.20;;;;;;;7.73;100.00;96370.34;5024827;28;20037;-60
2024/02/12 04:47:23;;;;;;;61.92;26.08;;;;;;;7.68;100.00;96365.22;5021547;28;20049;-61
2024/02/12 04:49:49;;;;;;;81.53;29.15;;;;;;;7.65;100.00;96375.63;5022194;28;20189;-58
2024/02/12 04:52:14;;;;;;;55.72;16.80;;;;;;;7.69;100.00;96361.75;5025208;28;20046;-60
2024/02/12 04:54:40;;;;;;;102.22;19.15;;;;;;;7.40;100.00;96372.63;5022791;28;20129;-60
2024/02/12 04:57:06;;;;;;;60.95;16.00;;;;;;;7.55;100.00;96374.09;5022857;28;20121;-59
2024/02/12 04:59:31;;;;;;;101.68;20.50;;;;;;;7.50;100.00;96371.56;5022217;28;20036;-59
2024/02/12 05:01:57;;;;;;;47.78;16.42;;;;;;;7.50;100.00;96375.91;5031316;28;20053;-58
2024/02/12 05:04:22;;;;;;;75.93;37.55;;;;;;;7.66;100.00;96377.38;5024884;28;20053;-59
2024/02/12 05:06:48;;;;;;;103.05;83.40;;;;;;;7.85;100.00;96382.19;5022787;28;20052;-59
2024/02/12 05:09:14;;;;;;;85.60;47.30;;;;;;;7.65;100.00;96385.97;5024523;28;20082;-59
2024/02/12 05:11:40;;;;;;;99.82;26.13;;;;;;;7.64;100.00;96379.09;5021116;28;20543;-58
2024/02/12 05:14:06;;;;;;;51.33;19.23;;;;;;;7.67;100.00;96383.38;5026495;28;20478;-62
2024/02/12 05:16:34;;;;;;;134.80;56.10;;;;;;;7.89;100.00;96376.09;5008792;28;20041;-60
2024/02/12 05:24:29;;;;;;;88.13;31.48;;;;;;;7.94;100.00;96378.56;5024098;28;20087;-58
2024/02/12 05:26:56;;;;;;;95.30;52.17;;;;;;;8.40;100.00;96384.59;5025452;28;20042;-59
2024/02/12 05:29:22;;;;;;;75.93;28.05;;;;;;;8.29;100.00;96384.81;5024985;28;20574;-60
2024/02/12 05:31:47;;;;;;;77.15;53.92;;;;;;;8.47;100.00;96383.56;5022670;28;20103;-59
2024/02/12 05:34:13;;;;;;;69.72;22.65;;;;;;;8.71;100.00;96390.88;5023794;28;20033;-60
2024/02/12 05:36:38;;;;;;;73.85;26.67;;;;;;;8.33;100.00;96391.66;5024239;28;20049;-59
2024/02/12 05:39:04;;;;;;;52.55;17.25;;;;;;;8.57;100.00;96392.03;5023999;28;20057;-58
2024/02/12 05:41:29;;;;;;;97.70;37.35;;;;;;;8.93;100.00;96390.41;5028295;28;20068;-59
2024/02/12 05:43:54;;;;;;;79.43;32.67;;;;;;;8.25;100.00;96397.84;5028865;28;20025;-58
2024/02/12 05:46:20;;;;;;;83.15;67.30;;;;;;;8.15;100.00;96389.41;5030043;28;20114;-59
2024/02/12 05:48:45;;;;;;;96.53;41.25;;;;;;;8.24;100.00;96396.97;5029260;28;20031;-57
2024/02/12 05:51:11;;;;;;;42.78;15.75;;;;;;;8.08;100.00;96397.31;5030345;28;20049;-57
2024/02/12 05:53:37;;;;;;;252.07;217.15;;;;;;;8.28;100.00;96396.03;5028506;28;20052;-61
2024/02/12 05:56:02;;;;;;;100.57;63.78;;;;;;;8.63;100.00;96401.44;5029654;28;20049;-60
2024/02/12 05:58:28;;;;;;;85.30;51.97;;;;;;;8.76;100.00;96403.75;5029066;28;20493;-58
2024/02/12 06:00:55;;;;;;;94.78;79.28;;;;;;;8.81;100.00;96407.09;5030076;28;20042;-59
2024/02/12 06:03:22;;;;;;;57.08;19.30;;;;;;;8.57;100.00;96423.13;5027653;28;20057;-58
2024/02/12 06:05:48;;;;;;;57.17;17.02;;;;;;;8.40;100.00;96420.88;5029110;28;20037;-61
2024/02/12 06:08:13;;;;;;;89.93;20.10;;;;;;;8.53;100.00;96420.63;5029117;28;20029;-61
2024/02/12 06:10:39;;;;;;;70.95;18.58;;;;;;;8.52;100.00;96424.94;5027043;28;20044;-63
2024/02/12 06:13:04;;;;;;;69.80;27.38;;;;;;;8.57;100.00;96430.03;5028057;28;20065;-61
2024/02/12 06:15:31;;;;;;;141.13;34.70;;;;;;;8.70;100.00;96428.94;5027330;28;20056;-62
2024/02/12 06:17:59;;;;;;;58.00;14.30;;;;;;;7.91;100.00;96441.59;5029093;28;20049;-63
2024/02/12 06:20:25;;;;;;;51.72;14.20;;;;;;;8.00;100.00;96439.72;5026790;28;20492;-59
2024/02/12 06:22:50;;;;;;;81.57;23.65;;;;;;;8.03;100.00;96445.72;5027208;28;20084;-62
2024/02/12 06:25:18;;;;;;;85.07;67.63;;;;;;;7.59;100.00;96444.75;5028891;28;20033;-64
2024/02/12 06:27:44;;;;;;;56.35;17.88;;;;;;;7.50;100.00;96450.94;5030204;28;20748;-62
2024/02/12 06:30:10;;;;;;;59.88;22.88;;;;;;;7.37;100.00;96453.72;5026654;28;20273;-61
2024/02/12 06:32:36;;;;;;;83.18;17.48;;;;;;;7.33;100.00;96459.81;5028500;28;20454;-58
2024/02/12 06:35:01;;;;;;;59.85;12.60;;;;;;;7.15;100.00;96460.91;5027386;28;20452;-59
2024/02/12 06:37:27;;;;;;;79.50;21.38;;;;;;;7.12;100.00;96469.59;5030263;28;20056;-58
2024/02/12 06:39:52;;;;;;;87.25;25.05;;;;;;;9.16;100.00;96466.88;5026238;28;20025;-58
2024/02/12 06:42:17;;;;;;;69.78;16.60;;;;;;;10.15;100.00;96476.63;5026294;28;20049;-60
2024/02/12 06:44:43;;;;;;;124.45;66.57;;;;;;;8.68;100.00;96479.94;5025572;28;20021;-60
2024/02/12 06:47:09;;;;;;;88.22;57.97;;;;;;;7.90;100.00;96473.56;5027226;28;20082;-58
2024/02/12 06:49:34;;;;;;;91.40;29.95;;;;;;;7.75;100.00;96482.44;5027058;28;20090;-59
2024/02/12 06:52:00;;;;;;;63.25;30.52;;;;;;;7.73;100.00;96481.63;5026582;28;20138;-62
2024/02/12 06:54:25;;;;;;;63.00;18.08;;;;;;;7.51;100.00;96486.28;5028061;28;20025;-58
2024/02/12 06:56:50;;;;;;;120.07;79.28;;;;;;;7.46;100.00;96490.66;5027624;28;20095;-59
2024/02/12 06:59:16;;;;;;;62.63;19.92;;;;;;;7.45;100.00;96497.56;5027488;28;20511;-60
2024/02/12 07:01:41;;;;;;;153.82;115.65;;;;;;;7.42;100.00;96501.03;5025316;28;20773;-59
2024/02/12 07:04:09;;;;;;;67.97;23.08;;;;;;;7.55;100.00;96496.56;5026864;28;20022;-58
2024/02/12 07:06:35;;;;;;;89.63;16.92;;;;;;;7.63;100.00;96508.50;5026997;28;20033;-61
2024/02/12 07:09:00;;;;;;;54.20;23.20;;;;;;;7.62;100.00;96502.50;5029352;28;20029;-62
2024/02/12 07:11:27;;;;;;;67.60;15.00;;;;;;;7.56;100.00;96507.75;5025803;28;20033;-59
2024/02/12 07:13:53;;;;;;;54.13;15.50;;;;;;;8.03;100.00;96509.59;5027815;28;20359;-59
2024/02/12 07:16:19;;;;;;;64.88;30.02;;;;;;;8.37;100.00;96515.91;5027586;28;20218;-59
2024/02/12 07:18:45;;;;;;;117.55;38.15;;;;;;;8.50;100.00;96516.56;5027933;28;20037;-62
2024/02/12 07:21:11;;;;;;;56.10;16.08;;;;;;;8.55;100.00;96525.13;5025118;28;20037;-58
2024/02/12 07:23:37;;;;;;;121.10;87.05;;;;;;;8.79;100.00;96517.72;5027863;28;20504;-60
2024/02/12 07:26:03;;;;;;;59.42;18.80;;;;;;;8.41;100.00;96523.59;5026964;28;20978;-60
2024/02/12 07:28:28;;;;;;;69.53;15.82;;;;;;;8.38;100.00;96526.25;5027282;28;20551;-60
2024/02/12 07:30:54;;;;;;;78.82;28.60;;;;;;;8.39;100.00;96529.69;5027443;28;20036;-58
2024/02/12 07:33:20;;;;;;;65.00;22.65;;;;;;;8.18;100.00;96530.06;5027061;28;20336;-61
2024/02/12 07:35:45;;;;;;;78.78;45.60;;;;;;;8.25;100.00;96532.53;5025991;28;20072;-60
2024/02/12 07:38:11;;;;;;;80.90;26.52;;;;;;;8.46;100.00;96539.91;5026756;28;20025;-60
2024/02/12 07:40:37;;;;;;;92.18;38.85;;;;;;;8.12;100.00;96544.84;5026940;28;20114;-59
2024/02/12 07:43:03;;;;;;;57.17;13.70;;;;;;;8.15;100.00;96545.66;5026048;28;20102;-60
2024/02/12 07:45:28;;;;;;;139.02;98.88;;;;;;;8.80;100.00;96553.16;5024916;28;20033;-62
2024/02/12 07:47:54;;;;;;;69.32;29.23;;;;;;;8.67;100.00;96553.41;5027099;28;20116;-59
2024/02/12 07:50:20;;;;;;;70.72;27.92;;;;;;;8.80;100.00;96555.75;5027075;28;20318;-59
2024/02/12 07:52:45;;;;;;;173.07;118.25;;;;;;;8.65;100.00;96552.56;5025511;28;20016;-61
2024/02/12 07:55:11;;;;;;;56.58;15.82;;;;;;;9.12;100.00;96556.84;5025124;28;20025;-61
2024/02/12 07:57:37;;;;;;;78.72;16.30;;;;;;;9.10;100.00;96558.63;5026806;28;20478;-59
2024/02/12 08:00:07;;;;;;;140.27;91.28;;;;;;;9.12;100.00;96559.44;5026929;28;20080;-59
2024/02/12 08:02:33;;;;;;;138.25;119.55;;;;;;;9.02;100.00;96565.69;5025566;28;20040;-59
2024/02/12 08:04:58;;;;;;;113.28;94.25;;;;;;;8.80;100.00;96566.97;5027725;28;20025;-63
2024/02/12 08:07:23;;;;;;;75.78;17.10;;;;;;;8.93;100.00;96571.91;5025609;28;20442;-61
2024/02/12 08:09:49;;;;;;;76.88;21.42;;;;;;;8.69;100.00;96574.94;5025613;28;20045;-59
2024/02/12 08:12:15;;;;;;;78.43;33.80;;;;;;;9.32;100.00;96573.75;5025711;28;20398;-61
2024/02/12 08:14:41;;;;;;;94.22;22.92;;;;;;;8.65;100.00;96583.66;5025217;28;20144;-61
2024/02/12 08:17:06;;;;;;;56.58;14.93;;;;;;;8.52;100.00;96592.50;5027890;28;20481;-59
2024/02/12 08:19:32;;;;;;;96.45;25.65;;;;;;;8.91;100.00;96587.50;5025687;28;20029;-61
2024/02/12 08:21:58;;;;;;;73.00;45.78;;;;;;;9.41;100.00;96591.69;5026764;28;20042;-59
2024/02/12 08:24:23;;;;;;;54.30;15.45;;;;;;;9.02;100.00;96591.63;5026245;28;20033;-60
2024/02/12 08:26:49;;;;;;;78.57;15.07;;;;;;;9.02;100.00;96594.22;5025561;28;20043;-61
2024/02/12 08:29:15;;;;;;;65.05;17.33;;;;;;;9.40;100.00;96604.72;5025898;28;20481;-58
2024/02/12 08:31:40;;;;;;;82.47;16.17;;;;;;;8.94;100.00;96607.31;5024381;28;20501;-59
2024/02/12 08:34:06;;;;;;;84.50;69.32;;;;;;;9.50;100.00;96608.81;5026185;28;20033;-60
2024/02/12 08:36:31;;;;;;;65.43;18.75;;;;;;;8.96;100.00;96614.22;5025852;28;20041;-60
2024/02/12 08:38:57;;;;;;;72.55;26.38;;;;;;;9.20;100.00;96622.38;5024167;28;20035;-60
2024/02/12 08:41:23;;;;;;;120.85;64.40;;;;;;;9.13;100.00;96625.13;5026361;28;20052;-60
2024/02/12 08:43:53;;;;;;;155.30;116.80;;;;;;;9.33;100.00;96619.53;5025891;28;20021;-60
2024/02/12 08:46:18;;;;;;;67.38;18.65;;;;;;;9.22;100.00;96628.41;5026875;28;20075;-61
2024/02/12 08:48:45;;;;;;;107.95;28.08;;;;;;;9.23;100.00;96627.53;5026779;28;20120;-60
2024/02/12 08:51:11;;;;;;;63.22;14.88;;;;;;;9.10;100.00;96628.66;5026867;28;20037;-59
2024/02/12 08:53:43;;;;;;;119.95;69.82;;;;;;;9.01;100.00;96631.44;5025660;28;20025;-61
2024/02/12 08:56:11;;;;;;;61.20;15.02;;;;;;;9.17;100.00;96635.41;5027205;28;20090;-59
2024/02/12 08:58:38;;;;;;;83.28;37.78;;;;;;;9.48;100.00;96636.53;5022857;28;20607;-57
2024/02/12 09:01:03;;;;;;;85.47;35.97;;;;;;;10.44;100.00;96638.78;5024754;28;20597;-58
2024/02/12 09:03:30;;;;;;;61.53;19.10;;;;;;;10.20;100.00;96640.19;5022744;28;20022;-63
2024/02/12 09:05:55;;;;;;;59.78;38.00;;;;;;;10.39;100.00;96643.16;5031483;28;20128;-60
2024/02/12 09:08:20;;;;;;;57.75;15.82;;;;;;;10.48;100.00;96645.59;5029629;28;20501;-60
2024/02/12 09:10:46;;;;;;;82.63;41.00;;;;;;;10.06;100.00;96643.09;5030076;28;20041;-58
2024/02/12 09:13:11;;;;;;;43.15;14.15;;;;;;;10.06;100.00;96646.53;5029569;28;20088;-58
2024/02/12 09:15:37;;;;;;;75.40;17.98;;;;;;;10.19;100.00;96652.31;5031587;28;20033;-58
2024/02/12 09:18:03;;;;;;;186.88;169.88;;;;;;;10.26;100.00;96651.28;5033374;28;20029;-58
2024/02/12 09:20:28;;;;;;;55.33;20.80;;;;;;;10.28;100.00;96662.47;5033897;28;20567;-60
2024/02/12 09:22:53;;;;;;;100.43;21.40;;;;;;;10.31;100.00;96664.16;5032400;28;20586;-59
2024/02/12 09:25:19;;;;;;;47.72;14.82;;;;;;;10.48;100.00;96666.41;5033049;28;20423;-59
2024/02/12 09:27:47;;;;;;;73.18;16.55;;;;;;;10.85;100.00;96669.81;5036615;28;20057;-58
2024/02/12 09:30:15;;;;;;;63.83;35.00;;;;;;;10.76;100.00;96675.25;5030234;28;20031;-59
2024/02/12 09:32:44;;;;;;;134.45;110.15;;;;;;;11.24;100.00;96673.16;5030991;28;20025;-61
2024/02/12 09:35:11;;;;;;;69.07;40.20;;;;;;;10.90;100.00;96678.34;5035113;28;20119;-60
2024/02/12 09:37:37;;;;;;;62.25;19.30;;;;;;;11.15;100.00;96682.06;5032630;28;20479;-62
2024/02/12 09:40:03;;;;;;;43.22;13.60;;;;;;;10.49;100.00;96688.03;5033674;28;20508;-60
2024/02/12 09:42:32;;;;;;;87.22;54.03;;;;;;;11.02;100.00;96686.75;5029419;28;20049;-61
2024/02/12 09:45:01;;;;;;;55.42;28.02;;;;;;;11.15;100.00;96687.25;5032397;28;20123;-58
2024/02/12 09:47:31;;;;;;;69.15;50.40;;;;;;;10.92;100.00;96684.34;5031878;28;20125;-59
2024/02/12 09:49:57;;;;;;;53.10;15.32;;;;;;;11.05;100.00;96692.72;5033807;28;20217;-60
2024/02/12 09:52:28;;;;;;;42.00;12.80;;;;;;;11.48;100.00;96694.19;5034135;28;20026;-59
2024/02/12 09:54:55;;;;;;;87.13;15.27;;;;;;;10.74;100.00;96698.69;5032244;28;20029;-57
2024/02/12 09:57:21;;;;;;;51.10;14.15;;;;;;;10.91;100.00;96700.84;5033085;28;20076;-59
2024/02/12 09:59:47;;;;;;;72.25;14.68;;;;;;;9.97;100.00;96701.28;5031815;28;20430;-60
2024/02/12 10:02:13;;;;;;;74.57;23.60;;;;;;;8.14;100.00;96701.03;5031990;28;20493;-58
2024/02/12 10:04:39;;;;;;;61.65;31.45;;;;;;;7.28;100.00;96710.72;5031457;28;20108;-59
2024/02/12 10:07:05;;;;;;;56.05;29.08;;;;;;;7.19;100.00;96713.41;5033020;28;20103;-58
2024/02/12 10:09:31;;;;;;;113.55;39.28;;;;;;;6.94;100.00;96716.22;5031372;28;20030;-59
2024/02/12 10:12:05;;;;;;;75.32;48.97;;;;;;;6.87;100.00;96720.59;5029631;28;20037;-60
2024/02/12 10:14:33;;;;;;;86.70;35.80;;;;;;;7.09;100.00;96724.72;5030095;28;20731;-59
2024/02/12 10:17:02;;;;;;;82.95;48.88;;;;;;;7.07;100.00;96732.50;5031444;28;20136;-58
2024/02/12 10:19:28;;;;;;;97.03;51.05;;;;;;;7.06;100.00;96723.03;5033019;28;20021;-60
2024/02/12 10:21:54;;;;;;;118.88;43.78;;;;;;;7.27;100.00;96737.47;5029730;28;20044;-60
2024/02/12 10:24:23;;;;;;;72.38;44.78;;;;;;;7.30;100.00;96731.41;5034628;28;20025;-59
2024/02/12 10:26:49;;;;;;;112.68;71.30;;;;;;;7.28;100.00;96735.75;5030825;28;20509;-59
2024/02/12 10:29:15;;;;;;;87.82;39.33;;;;;;;7.42;100.00;96728.69;5033035;28;20167;-59
2024/02/12 10:31:41;;;;;;;64.07;14.13;;;;;;;7.76;100.00;96742.13;5033257;28;20040;-58
2024/02/12 10:34:09;;;;;;;92.10;66.07;;;;;;;7.93;100.00;96724.63;5033399;28;20036;-60
2024/02/12 10:36:35;;;;;;;45.10;13.18;;;;;;;8.13;100.00;96735.59;5031334;28;20114;-60
2024/02/12 10:39:03;;;;;;;49.38;28.77;;;;;;;8.33;100.00;96732.72;5017171;28;20052;-62
2024/02/12 10:41:33;;;;;;;58.45;13.23;;;;;;;8.25;100.00;96738.03;5030680;28;20508;-59
2024/02/12 10:43:59;;;;;;;72.18;41.50;;;;;;;8.54;100.00;96746.28;5031657;28;20092;-59
2024/02/12 10:46:25;;;;;;;52.55;31.92;;;;;;;8.47;100.00;96748.91;5016022;28;20123;-59
2024/02/12 10:48:52;;;;;;;86.43;18.85;;;;;;;8.82;100.00;96741.50;5030410;28;20025;-59
2024/02/12 10:51:23;;;;;;;48.20;23.98;;;;;;;9.10;100.00;96743.63;5030817;28;20112;-60
2024/02/12 10:53:49;;;;;;;94.93;50.20;;;;;;;10.12;100.00;96746.84;5031630;28;20034;-61
2024/02/12 10:56:15;;;;;;;41.33;20.63;;;;;;;9.66;100.00;96749.53;5031013;28;20045;-59
2024/02/12 10:58:41;;;;;;;53.20;16.38;;;;;;;10.07;100.00;96751.31;5031111;28;20108;-59
2024/02/12 11:01:17;;;;;;;59.22;15.98;;;;;;;9.92;100.00;96750.75;5031640;28;20043;-60
2024/02/12 11:03:47;;;;;;;73.82;41.33;;;;;;;10.27;100.00;96751.72;5033622;28;20049;-58
2024/02/12 11:06:16;;;;;;;53.10;16.33;;;;;;;10.42;100.00;96754.88;5031015;28;20083;-59
2024/02/12 11:08:42;;;;;;;68.88;25.33;;;;;;;11.35;100.00;96751.78;5030207;28;20021;-61
2024/02/12 11:11:19;;;;;;;54.65;14.93;;;;;;;11.46;100.00;96754.09;5030673;28;20624;-61
2024/02/12 11:13:48;;;;;;;84.88;17.75;;;;;;;11.07;100.00;96757.72;5011741;28;20567;-59
2024/02/12 11:16:17;;;;;;;52.03;17.90;;;;;;;10.83;100.00;96759.19;5032316;28;20044;-60
2024/02/12 11:18:47;;;;;;;84.40;19.35;;;;;;;11.15;100.00;96760.97;5030236;28;20523;-59
2024/02/12 11:21:16;;;;;;;50.28;17.30;;;;;;;10.56;100.00;96759.78;5030237;28;20053;-58
2024/02/12 11:23:42;;;;;;;63.72;18.20;;;;;;;10.84;100.00;96760.88;5029403;28;20080;-62
2024/02/12 11:26:10;;;;;;;56.40;23.05;;;;;;;10.03;100.00;96759.16;5029196;28;20030;-60
2024/02/12 11:28:36;;;;;;;53.30;21.20;;;;;;;10.37;100.00;96762.78;5029745;28;20069;-58